createdAt,value
2023-02-19T00:00:28.939Z,24.38
2023-02-19T00:03:15.442Z,35.80
2023-02-19T00:06:03.319Z,23.60
2023-02-19T00:08:49.512Z,28.73
2023-02-19T00:11:36.059Z,26.67
2023-02-19T00:14:22.151Z,29.48
2023-02-19T00:17:07.843Z,23.45
2023-02-19T00:19:53.338Z,22.25
2023-02-19T00:22:39.473Z,31.45
2023-02-19T00:25:25.561Z,25.08
2023-02-19T00:28:11.395Z,23.50
2023-02-19T00:31:05.888Z,21.17
2023-02-19T00:33:55.039Z,21.33
2023-02-19T00:36:42.218Z,22.10
2023-02-19T00:39:28.279Z,30.20
2023-02-19T00:42:14.032Z,27.60
2023-02-19T00:44:59.744Z,21.23
2023-02-19T00:47:45.444Z,23.35
2023-02-19T00:50:31.360Z,23.83
2023-02-19T00:53:17.234Z,27.83
2023-02-19T00:56:02.868Z,26.90
2023-02-19T00:58:48.930Z,25.92
2023-02-19T01:01:34.976Z,25.80
2023-02-19T01:04:20.739Z,22.27
2023-02-19T01:07:07.050Z,23.25
2023-02-19T01:09:55.413Z,24.58
2023-02-19T01:12:41.037Z,27.13
2023-02-19T01:15:27.100Z,25.63
2023-02-19T01:18:12.913Z,21.90
2023-02-19T01:20:59.259Z,24.77
2023-02-19T01:23:45.285Z,24.73
2023-02-19T01:26:32.271Z,21.33
2023-02-19T01:29:18.349Z,24.85
2023-02-19T01:32:04.308Z,22.25
2023-02-19T01:34:50.705Z,25.20
2023-02-19T01:37:37.314Z,36.53
2023-02-19T01:40:23.486Z,32.97
2023-02-19T01:43:16.209Z,31.45
2023-02-19T01:46:02.090Z,30.10
2023-02-19T01:48:47.825Z,24.10
2023-02-19T01:51:34.484Z,22.73
2023-02-19T01:54:22.628Z,24.48
2023-02-19T01:57:13.756Z,25.85
2023-02-19T02:00:05.019Z,26.15
2023-02-19T02:02:58.809Z,23.13
2023-02-19T02:05:50.593Z,23.02
2023-02-19T02:08:55.861Z,24.23
2023-02-19T02:11:49.219Z,27.02
2023-02-19T02:14:38.162Z,24.77
2023-02-19T02:17:32.138Z,24.95
2023-02-19T02:20:55.249Z,27.27
2023-02-19T02:23:53.329Z,24.67
2023-02-19T02:27:01.255Z,18.80
2023-02-19T02:30:06.549Z,21.13
2023-02-19T02:33:19.787Z,25.80
2023-02-19T02:36:09.429Z,22.15
2023-02-19T02:38:58.397Z,19.42
2023-02-19T02:41:49.057Z,26.35
2023-02-19T02:44:42.164Z,25.85
2023-02-19T02:47:45.018Z,21.77
2023-02-19T02:50:37.040Z,19.67
2023-02-19T02:54:00.406Z,22.65
2023-02-19T02:56:48.363Z,22.95
2023-02-19T02:59:37.707Z,23.77
2023-02-19T03:02:26.796Z,22.77
2023-02-19T03:05:36.613Z,24.05
2023-02-19T03:08:25.430Z,21.50
2023-02-19T03:11:30.417Z,22.50
2023-02-19T03:14:40.651Z,24.08
2023-02-19T03:18:15.969Z,23.90
2023-02-19T03:21:04.415Z,23.00
2023-02-19T03:24:09.637Z,27.58
2023-02-19T03:26:57.514Z,20.40
2023-02-19T03:29:45.052Z,21.05
2023-02-19T03:32:38.724Z,21.95
2023-02-19T03:35:33.730Z,23.38
2023-02-19T03:41:21.563Z,23.70
2023-02-19T03:44:41.134Z,20.25
2023-02-19T03:47:34.318Z,24.92
2023-02-19T03:50:23.636Z,21.23
2023-02-19T03:53:35.117Z,20.25
2023-02-19T03:56:47.257Z,20.77
2023-02-19T03:59:43.974Z,25.15
2023-02-19T04:02:42.162Z,23.88
2023-02-19T04:05:30.909Z,19.60
2023-02-19T04:08:19.438Z,24.25
2023-02-19T04:11:12.194Z,21.05
2023-02-19T04:14:13.266Z,17.63
2023-02-19T04:17:03.298Z,21.27
2023-02-19T04:19:50.528Z,22.90
2023-02-19T04:22:37.261Z,20.15
2023-02-19T04:25:23.811Z,23.30
2023-02-19T04:28:10.101Z,20.00
2023-02-19T04:30:56.095Z,18.75
2023-02-19T04:33:41.851Z,23.55
2023-02-19T04:36:27.397Z,22.85
2023-02-19T04:39:13.111Z,24.30
2023-02-19T04:41:58.780Z,20.38
2023-02-19T04:44:44.519Z,19.63
2023-02-19T04:47:32.185Z,31.20
2023-02-19T04:50:18.243Z,18.75
2023-02-19T04:53:04.105Z,21.80
2023-02-19T04:55:53.223Z,20.25
2023-02-19T04:58:39.689Z,26.17
2023-02-19T05:01:25.660Z,18.90
2023-02-19T05:04:11.571Z,19.23
2023-02-19T05:06:57.399Z,20.85
2023-02-19T05:09:42.957Z,22.65
2023-02-19T05:12:31.117Z,24.02
2023-02-19T05:15:17.010Z,19.95
2023-02-19T05:18:03.185Z,23.88
2023-02-19T05:20:50.712Z,22.77
2023-02-19T05:23:36.941Z,24.58
2023-02-19T05:26:24.237Z,21.83
2023-02-19T05:29:10.324Z,42.28
2023-02-19T05:31:57.203Z,37.17
2023-02-19T05:34:42.904Z,24.40
2023-02-19T05:37:28.971Z,23.95
2023-02-19T05:40:14.840Z,27.92
2023-02-19T05:43:00.446Z,27.30
2023-02-19T05:45:46.086Z,26.30
2023-02-19T05:48:32.573Z,27.98
2023-02-19T05:51:21.716Z,37.15
2023-02-19T05:54:07.838Z,32.45
2023-02-19T05:56:53.737Z,34.35
2023-02-19T05:59:39.723Z,30.00
2023-02-19T06:02:25.412Z,33.92
2023-02-19T06:05:11.514Z,31.60
2023-02-19T06:07:57.329Z,28.30
2023-02-19T06:10:43.685Z,26.73
2023-02-19T06:13:29.700Z,25.05
2023-02-19T06:16:17.607Z,23.92
2023-02-19T06:19:04.164Z,27.40
2023-02-19T06:21:50.834Z,24.10
2023-02-19T06:24:37.852Z,28.83
2023-02-19T06:27:24.026Z,22.63
2023-02-19T06:30:10.773Z,29.02
2023-02-19T06:32:57.913Z,23.02
2023-02-19T06:35:43.611Z,23.67
2023-02-19T06:38:29.438Z,25.17
2023-02-19T06:41:15.793Z,24.42
2023-02-19T06:44:02.034Z,23.77
2023-02-19T06:46:48.126Z,29.02
2023-02-19T06:49:33.710Z,29.95
2023-02-19T06:52:19.655Z,26.60
2023-02-19T06:55:09.097Z,29.95
2023-02-19T06:57:54.846Z,28.20
2023-02-19T07:00:40.368Z,31.08
2023-02-19T07:03:29.590Z,29.40
2023-02-19T07:06:15.600Z,26.38
2023-02-19T07:09:01.924Z,30.48
2023-02-19T07:11:48.015Z,35.92
2023-02-19T07:14:33.788Z,30.70
2023-02-19T07:17:19.794Z,30.20
2023-02-19T07:20:05.795Z,40.63
2023-02-19T07:22:51.467Z,35.92
2023-02-19T07:25:38.153Z,43.60
2023-02-19T07:28:24.169Z,50.08
2023-02-19T07:31:10.626Z,49.15
2023-02-19T07:33:56.691Z,42.80
2023-02-19T07:36:42.511Z,44.40
2023-02-19T07:39:28.419Z,50.20
2023-02-19T07:42:14.253Z,48.50
2023-02-19T07:45:00.726Z,41.17
2023-02-19T07:47:46.672Z,46.92
2023-02-19T07:50:32.469Z,38.85
2023-02-19T07:53:18.836Z,46.88
2023-02-19T07:56:06.808Z,50.25
2023-02-19T07:58:52.989Z,43.88
2023-02-19T08:01:57.503Z,35.13
2023-02-19T08:04:43.585Z,34.67
2023-02-19T08:07:39.557Z,37.28
2023-02-19T08:10:44.373Z,37.42
2023-02-19T08:13:30.929Z,31.83
2023-02-19T08:16:29.658Z,35.15
2023-02-19T08:19:23.351Z,30.00
2023-02-19T08:22:09.373Z,24.17
2023-02-19T08:24:55.073Z,24.98
2023-02-19T08:27:40.930Z,20.13
2023-02-19T08:30:31.351Z,27.40
2023-02-19T08:33:19.707Z,24.88
2023-02-19T08:36:07.052Z,24.15
2023-02-19T08:38:52.945Z,24.58
2023-02-19T08:41:38.715Z,32.10
2023-02-19T08:44:26.360Z,25.42
2023-02-19T08:47:12.459Z,25.27
2023-02-19T08:49:58.197Z,29.38
2023-02-19T08:52:43.989Z,21.40
2023-02-19T08:55:30.167Z,21.15
2023-02-19T08:58:16.059Z,20.15
2023-02-19T09:01:01.896Z,24.58
2023-02-19T09:03:47.866Z,23.60
2023-02-19T09:06:33.888Z,20.15
2023-02-19T09:09:19.958Z,19.52
2023-02-19T09:12:07.476Z,18.20
2023-02-19T09:14:53.075Z,25.45
2023-02-19T09:17:38.951Z,18.88
2023-02-19T09:20:25.427Z,22.80
2023-02-19T09:23:11.568Z,25.05
2023-02-19T09:26:00.221Z,21.92
2023-02-19T09:28:46.009Z,27.05
2023-02-19T09:31:32.667Z,17.40
2023-02-19T09:34:18.307Z,13.60
2023-02-19T09:37:03.982Z,13.90
2023-02-19T09:39:49.561Z,16.90
2023-02-19T09:42:35.667Z,18.75
2023-02-19T09:45:26.356Z,19.45
2023-02-19T09:48:12.608Z,27.25
2023-02-19T09:50:59.649Z,18.70
2023-02-19T09:53:48.166Z,44.20
2023-02-19T09:56:34.723Z,19.05
2023-02-19T09:59:42.470Z,18.10
2023-02-19T10:02:30.855Z,28.42
2023-02-19T10:05:17.211Z,19.80
2023-02-19T10:08:05.632Z,15.68
2023-02-19T10:10:53.544Z,16.88
2023-02-19T10:13:53.786Z,16.52
2023-02-19T10:16:40.984Z,16.95
2023-02-19T10:19:27.175Z,14.07
2023-02-19T10:22:13.607Z,18.95
2023-02-19T10:24:59.698Z,16.92
2023-02-19T10:27:46.506Z,18.85
2023-02-19T10:30:34.229Z,16.25
2023-02-19T10:33:22.009Z,19.02
2023-02-19T10:36:21.287Z,20.45
2023-02-19T10:39:22.548Z,21.30
2023-02-19T10:42:15.963Z,18.67
2023-02-19T10:45:02.910Z,14.70
2023-02-19T10:47:49.586Z,26.58
2023-02-19T10:50:47.140Z,21.83
2023-02-19T10:53:42.669Z,28.27
2023-02-19T10:56:31.424Z,20.63
2023-02-19T10:59:28.378Z,19.02
2023-02-19T11:02:19.055Z,18.92
2023-02-19T11:05:16.774Z,19.25
2023-02-19T11:08:02.550Z,21.23
2023-02-19T11:10:48.583Z,15.05
2023-02-19T11:13:38.062Z,18.95
2023-02-19T11:16:25.186Z,21.15
2023-02-19T11:19:26.486Z,12.00
2023-02-19T11:22:32.869Z,12.73
2023-02-19T11:25:21.714Z,16.55
2023-02-19T11:28:20.667Z,15.20
2023-02-19T11:31:19.367Z,22.42
2023-02-19T11:34:14.429Z,14.63
2023-02-19T11:37:12.223Z,16.85
2023-02-19T11:39:58.075Z,12.48
2023-02-19T11:43:07.785Z,12.95
2023-02-19T11:46:17.239Z,25.42
2023-02-19T11:49:24.656Z,16.17
2023-02-19T11:52:29.516Z,14.50
2023-02-19T11:55:36.260Z,13.32
2023-02-19T11:59:00.897Z,15.32
2023-02-19T12:01:53.339Z,20.38
2023-02-19T12:05:19.062Z,20.45
2023-02-19T12:08:26.088Z,26.58
2023-02-19T12:11:38.240Z,21.17
2023-02-19T12:14:46.877Z,24.73
2023-02-19T12:17:54.023Z,26.95
2023-02-19T12:21:13.624Z,25.67
2023-02-19T12:24:09.479Z,27.13
2023-02-19T12:27:33.947Z,14.73
2023-02-19T12:30:51.576Z,15.45
2023-02-19T12:33:40.610Z,15.30
2023-02-19T12:37:00.221Z,14.10
2023-02-19T12:39:52.358Z,18.50
2023-02-19T12:42:56.953Z,16.58
2023-02-19T12:45:45.548Z,17.10
2023-02-19T12:49:00.200Z,18.13
2023-02-19T12:51:55.283Z,14.43
2023-02-19T12:54:44.282Z,15.82
2023-02-19T12:57:35.134Z,29.27
2023-02-19T13:00:41.098Z,21.02
2023-02-19T13:03:49.420Z,25.58
2023-02-19T13:06:50.793Z,19.05
2023-02-19T13:09:47.075Z,19.55
2023-02-19T13:12:41.632Z,18.08
2023-02-19T13:15:35.621Z,13.75
2023-02-19T13:18:25.891Z,18.30
2023-02-19T13:21:13.542Z,16.90
2023-02-19T13:24:12.150Z,12.02
2023-02-19T13:27:42.255Z,14.48
2023-02-19T13:30:43.235Z,22.75
2023-02-19T13:33:54.780Z,20.88
2023-02-19T13:36:41.879Z,24.20
2023-02-19T13:39:29.257Z,23.67
2023-02-19T13:42:41.617Z,23.58
2023-02-19T13:45:41.140Z,23.85
2023-02-19T13:48:32.981Z,33.80
2023-02-19T13:51:29.716Z,24.85
2023-02-19T13:54:22.777Z,17.77
2023-02-19T13:57:24.073Z,22.33
2023-02-19T14:00:49.298Z,15.60
2023-02-19T14:03:55.553Z,24.63
2023-02-19T14:07:07.646Z,18.17
2023-02-19T14:09:55.241Z,28.00
2023-02-19T14:12:41.231Z,25.30
2023-02-19T14:15:53.395Z,28.15
2023-02-19T14:18:45.699Z,16.48
2023-02-19T14:21:36.800Z,21.65
2023-02-19T14:24:23.591Z,19.65
2023-02-19T14:27:09.532Z,20.83
2023-02-19T14:29:55.783Z,31.50
2023-02-19T14:32:43.630Z,20.92
2023-02-19T14:36:14.506Z,20.17
2023-02-19T14:39:11.567Z,23.48
2023-02-19T14:42:00.271Z,17.23
2023-02-19T14:44:52.924Z,19.60
2023-02-19T14:47:38.709Z,21.45
2023-02-19T14:50:36.534Z,20.20
2023-02-19T14:53:23.605Z,16.80
2023-02-19T14:56:25.136Z,23.60
2023-02-19T14:59:13.848Z,25.42
2023-02-19T15:02:02.189Z,26.17
2023-02-19T15:04:48.477Z,23.48
2023-02-19T15:07:34.413Z,29.35
2023-02-19T15:10:20.608Z,29.17
2023-02-19T15:13:08.450Z,38.88
2023-02-19T15:15:55.492Z,28.35
2023-02-19T15:18:46.347Z,31.60
2023-02-19T15:21:32.947Z,41.95
2023-02-19T15:24:19.350Z,35.10
2023-02-19T15:27:05.399Z,69.40
2023-02-19T15:29:53.685Z,37.88
2023-02-19T15:32:40.985Z,32.88
2023-02-19T15:35:28.095Z,20.30
2023-02-19T15:38:13.775Z,32.50
2023-02-19T15:40:59.843Z,25.88
2023-02-19T15:44:09.839Z,71.03
2023-02-19T15:46:56.329Z,36.42
2023-02-19T15:49:51.772Z,26.60
2023-02-19T15:52:48.549Z,24.00
2023-02-19T15:55:46.785Z,30.27
2023-02-19T15:58:47.447Z,51.53
2023-02-19T16:01:36.618Z,34.90
2023-02-19T16:04:22.578Z,36.30
2023-02-19T16:07:23.595Z,41.40
2023-02-19T16:10:22.880Z,36.53
2023-02-19T16:13:11.988Z,60.58
2023-02-19T16:16:17.105Z,51.42
2023-02-19T16:19:02.932Z,38.10
2023-02-19T16:21:48.660Z,41.53
2023-02-19T16:24:46.877Z,55.38
2023-02-19T16:27:39.244Z,74.88
2023-02-19T16:30:31.594Z,33.60
2023-02-19T16:33:36.429Z,46.00
2023-02-19T16:36:36.095Z,45.45
2023-02-19T16:39:23.406Z,39.80
2023-02-19T16:42:12.612Z,35.30
2023-02-19T16:44:58.206Z,35.15
2023-02-19T16:47:51.354Z,31.92
2023-02-19T16:50:41.407Z,27.83
2023-02-19T16:53:28.912Z,32.60
2023-02-19T16:56:18.596Z,29.13
2023-02-19T16:59:05.234Z,32.38
2023-02-19T17:01:50.793Z,36.05
2023-02-19T17:04:36.552Z,30.25
2023-02-19T17:07:22.832Z,28.85
2023-02-19T17:10:11.410Z,22.50
2023-02-19T17:12:57.212Z,19.42
2023-02-19T17:15:43.177Z,21.05
2023-02-19T17:18:30.077Z,25.10
2023-02-19T17:21:21.852Z,30.67
2023-02-19T17:24:07.993Z,35.35
2023-02-19T17:26:53.976Z,33.42
2023-02-19T17:29:40.814Z,37.22
2023-02-19T17:32:26.910Z,40.97
2023-02-19T17:35:13.441Z,32.78
2023-02-19T17:37:59.783Z,48.15
2023-02-19T17:40:45.837Z,44.67
2023-02-19T17:43:31.856Z,48.13
2023-02-19T17:46:19.289Z,56.47
2023-02-19T17:49:05.410Z,53.33
2023-02-19T17:51:51.297Z,53.05
2023-02-19T17:54:37.202Z,52.08
2023-02-19T17:57:22.900Z,45.97
2023-02-19T18:00:09.271Z,46.78
2023-02-19T18:02:59.311Z,41.78
2023-02-19T18:05:45.629Z,53.78
2023-02-19T18:08:31.770Z,50.00
2023-02-19T18:11:18.316Z,55.05
2023-02-19T18:14:03.906Z,56.83
2023-02-19T18:16:50.825Z,59.03
2023-02-19T18:19:37.178Z,45.25
2023-02-19T18:22:24.005Z,47.42
2023-02-19T18:25:10.501Z,43.72
2023-02-19T18:27:56.619Z,54.10
2023-02-19T18:30:42.675Z,48.33
2023-02-19T18:33:28.713Z,44.67
2023-02-19T18:36:14.996Z,76.80
2023-02-19T18:39:01.049Z,84.72
2023-02-19T18:41:49.055Z,72.97
2023-02-19T18:44:35.206Z,58.38
2023-02-19T18:47:22.095Z,81.40
2023-02-19T18:50:09.921Z,83.47
2023-02-19T18:53:00.664Z,119.30
2023-02-19T18:55:46.712Z,119.78
2023-02-19T18:58:32.710Z,163.23
2023-02-19T19:01:21.386Z,126.15
2023-02-19T19:04:07.462Z,130.75
2023-02-19T19:06:53.442Z,117.15
2023-02-19T19:09:39.121Z,106.78
2023-02-19T19:12:24.922Z,100.38
2023-02-19T19:15:10.826Z,121.93
2023-02-19T19:17:56.650Z,97.03
2023-02-19T19:20:42.451Z,95.30
2023-02-19T19:23:28.181Z,86.45
2023-02-19T19:26:14.730Z,83.90
2023-02-19T19:29:00.683Z,94.95
2023-02-19T19:31:46.915Z,84.63
2023-02-19T19:34:32.944Z,74.47
2023-02-19T19:37:18.689Z,75.70
2023-02-19T19:40:04.904Z,87.00
2023-02-19T19:42:52.255Z,71.53
2023-02-19T19:45:38.685Z,47.30
2023-02-19T19:48:27.542Z,54.25
2023-02-19T19:51:13.778Z,53.72
2023-02-19T19:54:01.231Z,72.63
2023-02-19T19:56:47.727Z,51.13
2023-02-19T19:59:33.791Z,159.45
2023-02-19T20:02:19.923Z,105.50
2023-02-19T20:05:06.647Z,79.47
2023-02-19T20:07:54.335Z,62.70
2023-02-19T20:10:43.431Z,36.75
2023-02-19T20:13:31.047Z,31.85
2023-02-19T20:16:16.837Z,33.20
2023-02-19T20:19:02.921Z,36.00
2023-02-19T20:21:51.746Z,29.40
2023-02-19T20:24:38.409Z,28.00
2023-02-19T20:27:24.713Z,33.03
2023-02-19T20:30:15.855Z,38.47
2023-02-19T20:33:02.458Z,39.28
2023-02-19T20:35:48.542Z,54.50
2023-02-19T20:38:35.322Z,52.08
2023-02-19T20:41:21.324Z,53.15
2023-02-19T20:44:09.621Z,42.60
2023-02-19T20:46:58.144Z,47.35
2023-02-19T20:49:46.465Z,58.30
2023-02-19T20:52:32.515Z,63.05
2023-02-19T20:55:19.383Z,62.95
2023-02-19T20:58:05.381Z,53.97
2023-02-19T21:00:53.592Z,46.63
2023-02-19T21:03:39.621Z,37.90
2023-02-19T21:06:26.366Z,42.50
2023-02-19T21:09:12.790Z,40.38
2023-02-19T21:12:00.038Z,42.55
2023-02-19T21:14:49.165Z,50.33
2023-02-19T21:17:35.831Z,47.13
2023-02-19T21:20:21.929Z,44.90
2023-02-19T21:23:08.834Z,49.00
2023-02-19T21:25:56.817Z,35.90
2023-02-19T21:28:43.263Z,44.35
2023-02-19T21:31:59.938Z,39.65
2023-02-19T21:34:45.706Z,38.70
2023-02-19T21:37:41.206Z,40.67
2023-02-19T21:40:29.070Z,42.47
2023-02-19T21:43:15.612Z,37.90
2023-02-19T21:46:01.392Z,45.95
2023-02-19T21:48:51.636Z,60.92
2023-02-19T21:51:41.107Z,70.15
2023-02-19T21:54:26.868Z,49.88
2023-02-19T21:57:12.754Z,63.28
2023-02-19T21:59:58.601Z,55.63
2023-02-19T22:02:44.637Z,48.65
2023-02-19T22:05:30.937Z,43.65
2023-02-19T22:08:17.570Z,33.67
2023-02-19T22:11:04.103Z,39.47
2023-02-19T22:13:50.508Z,37.35
2023-02-19T22:16:36.335Z,38.47
2023-02-19T22:19:22.261Z,40.38
2023-02-19T22:22:08.121Z,41.85
2023-02-19T22:24:53.946Z,42.40
2023-02-19T22:27:40.092Z,30.98
2023-02-19T22:30:26.210Z,34.53
2023-02-19T22:33:11.997Z,43.80
2023-02-19T22:35:57.687Z,47.45
2023-02-19T22:38:43.771Z,48.25
2023-02-19T22:41:30.134Z,47.50
2023-02-19T22:44:16.246Z,46.08
2023-02-19T22:47:02.101Z,41.67
2023-02-19T22:49:48.436Z,38.90
2023-02-19T22:52:36.832Z,38.15
2023-02-19T22:55:22.753Z,35.53
2023-02-19T22:58:08.661Z,35.17
2023-02-19T23:00:55.386Z,36.15
2023-02-19T23:03:52.949Z,39.40
2023-02-19T23:06:42.973Z,37.78
2023-02-19T23:09:30.172Z,31.67
2023-02-19T23:12:16.216Z,33.50
2023-02-19T23:15:02.411Z,34.58
2023-02-19T23:17:48.675Z,32.13
2023-02-19T23:20:35.786Z,31.98
2023-02-19T23:23:21.835Z,30.27
2023-02-19T23:26:07.653Z,32.45
2023-02-19T23:28:53.513Z,30.98
2023-02-19T23:31:39.616Z,32.03
2023-02-19T23:34:29.937Z,26.83
2023-02-19T23:37:19.769Z,36.22
2023-02-19T23:40:05.804Z,31.08
2023-02-19T23:42:52.601Z,32.97
2023-02-19T23:45:38.216Z,27.83
2023-02-19T23:48:24.827Z,25.10
2023-02-19T23:51:10.440Z,29.15
2023-02-19T23:53:56.200Z,35.35
2023-02-19T23:56:41.985Z,26.70
2023-02-19T23:59:27.642Z,31.27
